createdAt,value
2019-06-15T00:00:04.397Z,0.40
2019-06-15T00:02:57.981Z,0.47
2019-06-15T00:05:59.739Z,0.73
2019-06-15T00:08:57.115Z,0.73
2019-06-15T00:11:57.775Z,0.70
2019-06-15T00:14:54.863Z,0.50
2019-06-15T00:17:55.862Z,0.67
2019-06-15T00:20:52.361Z,0.60
2019-06-15T00:23:53.863Z,0.40
2019-06-15T00:26:47.745Z,0.70
2019-06-15T00:29:48.439Z,0.60
2019-06-15T00:32:42.751Z,0.60
2019-06-15T00:35:44.139Z,0.40
2019-06-15T00:38:39.511Z,0.60
2019-06-15T00:41:40.983Z,0.37
2019-06-15T00:44:35.583Z,0.40
2019-06-15T00:47:36.959Z,0.50
2019-06-15T00:50:32.845Z,0.60
2019-06-15T00:53:33.521Z,0.70
2019-06-15T00:56:28.127Z,0.40
2019-06-15T00:59:34.860Z,0.50
2019-06-15T01:02:29.098Z,0.43
2019-06-15T01:05:30.660Z,0.90
2019-06-15T01:08:25.585Z,0.83
2019-06-15T01:11:28.260Z,0.50
2019-06-15T01:14:21.938Z,0.60
2019-06-15T01:17:22.949Z,0.50
2019-06-15T01:20:16.821Z,0.70
2019-06-15T01:23:18.325Z,0.60
2019-06-15T01:26:12.970Z,0.77
2019-06-15T01:29:14.718Z,0.43
2019-06-15T01:32:14.552Z,0.40
2019-06-15T01:35:15.494Z,0.43
2019-06-15T01:38:13.171Z,0.60
2019-06-15T01:41:14.584Z,0.43
2019-06-15T01:44:15.148Z,0.60
2019-06-15T01:47:09.353Z,0.40
2019-06-15T01:50:05.760Z,0.50
2019-06-15T01:53:08.124Z,0.73
2019-06-15T01:56:16.558Z,0.60
2019-06-15T01:59:18.662Z,0.50
2019-06-15T02:02:12.391Z,0.50
2019-06-15T02:05:17.225Z,0.73
2019-06-15T02:08:10.942Z,0.73
2019-06-15T02:11:18.812Z,0.70
2019-06-15T02:14:12.617Z,0.53
2019-06-15T02:17:13.534Z,0.60
2019-06-15T02:20:08.239Z,0.40
2019-06-15T02:23:08.846Z,0.50
2019-06-15T02:26:02.738Z,0.60
2019-06-15T02:29:06.527Z,0.57
2019-06-15T02:32:02.440Z,0.50
2019-06-15T02:35:03.698Z,0.60
2019-06-15T02:38:02.636Z,0.70
2019-06-15T02:41:03.557Z,0.40
2019-06-15T02:43:57.360Z,0.53
2019-06-15T02:46:58.554Z,0.40
2019-06-15T02:49:52.748Z,0.60
2019-06-15T02:52:57.181Z,0.40
2019-06-15T02:55:51.303Z,0.30
2019-06-15T02:58:52.724Z,0.40
2019-06-15T03:01:46.709Z,0.33
2019-06-15T03:04:47.554Z,0.53
2019-06-15T03:07:44.184Z,0.77
2019-06-15T03:10:48.246Z,0.43
2019-06-15T03:13:41.855Z,0.60
2019-06-15T03:16:45.026Z,0.40
2019-06-15T03:19:39.338Z,0.47
2019-06-15T03:22:40.797Z,0.50
2019-06-15T03:25:34.659Z,0.40
2019-06-15T03:28:38.275Z,0.60
2019-06-15T03:31:34.331Z,0.80
2019-06-15T03:34:37.557Z,0.50
2019-06-15T03:37:31.206Z,0.67
2019-06-15T03:40:36.593Z,0.50
2019-06-15T03:43:30.903Z,0.53
2019-06-15T03:46:31.904Z,0.43
2019-06-15T03:49:35.733Z,0.40
2019-06-15T03:52:30.030Z,0.60
2019-06-15T03:55:29.595Z,1.00
2019-06-15T03:58:29.993Z,0.80
2019-06-15T04:01:35.421Z,0.50
2019-06-15T04:04:29.943Z,0.60
2019-06-15T04:07:23.583Z,0.60
2019-06-15T04:10:29.237Z,0.90
2019-06-15T04:13:36.531Z,0.80
2019-06-15T04:16:37.931Z,0.60
2019-06-15T04:19:32.602Z,0.73
2019-06-15T04:22:33.645Z,0.70
2019-06-15T04:25:29.612Z,0.70
2019-06-15T04:28:31.191Z,0.60
2019-06-15T04:31:25.284Z,0.67
2019-06-15T04:34:26.650Z,0.90
2019-06-15T04:37:20.064Z,0.70
2019-06-15T04:40:21.544Z,0.60
2019-06-15T04:43:15.888Z,0.80
2019-06-15T04:46:21.153Z,0.60
2019-06-15T04:49:18.931Z,0.60
2019-06-15T04:52:24.583Z,0.77
2019-06-15T04:55:19.309Z,0.70
2019-06-15T04:58:20.890Z,0.77
2019-06-15T05:01:19.769Z,0.73
2019-06-15T05:04:24.742Z,0.87
2019-06-15T05:07:19.092Z,0.70
2019-06-15T05:10:22.044Z,0.70
2019-06-15T05:13:16.899Z,1.10
2019-06-15T05:16:18.251Z,1.17
2019-06-15T05:19:12.445Z,0.70
2019-06-15T05:22:15.425Z,0.80
2019-06-15T05:25:15.499Z,0.67
2019-06-15T05:28:16.142Z,0.77
2019-06-15T05:31:13.598Z,0.80
2019-06-15T05:34:15.842Z,0.60
2019-06-15T05:37:10.684Z,0.90
2019-06-15T05:40:13.011Z,0.83
2019-06-15T05:43:06.949Z,0.77
2019-06-15T05:46:10.070Z,1.07
2019-06-15T05:49:03.937Z,0.80
2019-06-15T05:55:08.890Z,0.73
2019-06-15T05:58:03.250Z,0.70
2019-06-15T06:00:57.484Z,0.67
2019-06-15T06:04:01.654Z,0.60
2019-06-15T06:07:03.903Z,0.70
2019-06-15T06:09:58.829Z,0.90
2019-06-15T06:12:53.884Z,0.77
2019-06-15T06:15:54.780Z,0.70
2019-06-15T06:19:03.414Z,1.10
2019-06-15T06:22:04.744Z,1.03
2019-06-15T06:24:59.027Z,0.80
2019-06-15T06:28:01.107Z,0.70
2019-06-15T06:30:54.898Z,0.80
2019-06-15T06:33:56.511Z,0.70
2019-06-15T06:36:54.285Z,0.80
2019-06-15T06:39:55.239Z,0.90
2019-06-15T06:42:50.628Z,0.70
2019-06-15T06:45:51.650Z,0.53
2019-06-15T06:48:48.649Z,0.63
2019-06-15T06:51:49.706Z,0.70
2019-06-15T06:54:47.128Z,0.67
2019-06-15T06:57:53.566Z,0.53
2019-06-15T07:00:47.810Z,0.60
2019-06-15T07:03:48.473Z,0.70
2019-06-15T07:06:42.626Z,0.80
2019-06-15T07:09:44.110Z,0.50
2019-06-15T07:12:40.627Z,0.63
2019-06-15T07:15:43.414Z,0.70
2019-06-15T07:18:38.932Z,0.50
2019-06-15T07:21:41.569Z,0.90
2019-06-15T07:24:38.886Z,1.10
2019-06-15T07:27:40.911Z,0.80
2019-06-15T07:30:34.789Z,0.63
2019-06-15T07:33:39.306Z,0.70
2019-06-15T07:36:38.541Z,0.47
2019-06-15T07:39:39.338Z,0.80
2019-06-15T07:42:33.740Z,0.70
2019-06-15T07:45:35.350Z,0.53
2019-06-15T07:48:31.793Z,0.70
2019-06-15T07:51:33.302Z,0.67
2019-06-15T07:54:29.632Z,0.47
2019-06-15T07:57:30.896Z,0.53
2019-06-15T08:00:40.025Z,0.77
2019-06-15T08:03:44.409Z,0.60
2019-06-15T08:06:45.178Z,0.67
2019-06-15T08:09:48.497Z,0.80
2019-06-15T08:12:42.352Z,0.50
2019-06-15T08:15:43.682Z,0.60
2019-06-15T08:18:38.095Z,0.70
2019-06-15T08:21:38.493Z,0.63
2019-06-15T08:24:33.348Z,0.60
2019-06-15T08:27:39.634Z,0.40
2019-06-15T08:30:47.358Z,1.23
2019-06-15T08:33:48.868Z,0.90
2019-06-15T08:36:45.697Z,0.70
2019-06-15T08:39:50.903Z,0.67
2019-06-15T08:42:44.589Z,0.43
2019-06-15T08:45:48.112Z,0.70
2019-06-15T08:48:42.150Z,0.83
2019-06-15T08:51:46.839Z,0.70
2019-06-15T08:54:42.472Z,0.50
2019-06-15T08:57:49.534Z,0.50
2019-06-15T09:00:57.507Z,0.60
2019-06-15T09:03:58.821Z,0.50
2019-06-15T09:06:52.665Z,0.60
2019-06-15T09:09:54.556Z,0.50
2019-06-15T09:12:48.787Z,0.70
2019-06-15T09:15:56.848Z,0.40
2019-06-15T09:18:51.338Z,0.60
2019-06-15T09:21:52.098Z,0.67
2019-06-15T09:24:45.910Z,0.70
2019-06-15T09:27:48.497Z,0.60
2019-06-15T09:30:43.903Z,0.80
2019-06-15T09:33:45.262Z,0.80
2019-06-15T09:36:39.057Z,1.10
2019-06-15T09:39:40.742Z,1.07
2019-06-15T09:42:35.203Z,0.70
2019-06-15T09:45:39.541Z,0.93
2019-06-15T09:48:37.329Z,0.63
2019-06-15T09:51:40.374Z,0.67
2019-06-15T09:54:34.308Z,0.60
2019-06-15T09:57:36.105Z,0.70
2019-06-15T10:00:33.085Z,0.77
2019-06-15T10:03:35.704Z,0.63
2019-06-15T10:06:29.111Z,0.60
2019-06-15T10:09:30.096Z,0.70
2019-06-15T10:12:24.238Z,0.50
2019-06-15T10:15:25.883Z,0.70
2019-06-15T10:18:20.645Z,0.77
2019-06-15T10:21:21.964Z,0.70
2019-06-15T10:24:18.927Z,0.57
2019-06-15T10:27:20.192Z,0.67
2019-06-15T10:30:16.263Z,0.50
2019-06-15T10:33:18.773Z,0.70
2019-06-15T10:36:13.238Z,0.70
2019-06-15T10:39:13.861Z,0.70
2019-06-15T10:42:08.080Z,0.80
2019-06-15T10:45:09.827Z,0.90
2019-06-15T10:48:06.229Z,0.60
2019-06-15T10:51:08.347Z,0.73
2019-06-15T10:54:05.797Z,0.70
2019-06-15T10:57:07.651Z,0.60
2019-06-15T11:00:04.001Z,0.83
2019-06-15T11:03:06.118Z,0.67
2019-06-15T11:06:17.656Z,0.87
2019-06-15T11:09:19.177Z,0.83
2019-06-15T11:12:13.444Z,0.80
2019-06-15T11:15:15.091Z,0.83
2019-06-15T11:18:09.525Z,0.80
2019-06-15T11:21:12.150Z,0.80
2019-06-15T11:24:06.592Z,0.90
2019-06-15T11:27:09.364Z,1.07
2019-06-15T11:30:12.873Z,1.00
2019-06-15T11:33:09.244Z,0.60
2019-06-15T11:36:03.071Z,0.70
2019-06-15T11:39:04.573Z,0.93
2019-06-15T11:41:58.650Z,0.83
2019-06-15T11:45:00.050Z,0.90
2019-06-15T11:47:57.313Z,0.90
2019-06-15T11:51:00.611Z,1.20
2019-06-15T11:53:54.602Z,1.47
2019-06-15T11:56:55.440Z,0.70
2019-06-15T11:59:51.391Z,0.90
2019-06-15T12:02:57.313Z,1.00
2019-06-15T12:05:51.999Z,0.80
2019-06-15T12:08:52.498Z,0.80
2019-06-15T12:11:48.389Z,0.90
2019-06-15T12:14:50.931Z,1.07
2019-06-15T12:17:47.770Z,0.77
2019-06-15T12:20:49.567Z,0.80
2019-06-15T12:23:48.149Z,1.10
2019-06-15T12:26:49.157Z,0.80
2019-06-15T12:29:42.821Z,0.80
2019-06-15T12:32:44.290Z,0.83
2019-06-15T12:35:39.353Z,1.03
2019-06-15T12:38:41.751Z,0.87
2019-06-15T12:41:35.480Z,1.10
2019-06-15T12:44:36.220Z,1.10
2019-06-15T12:47:35.016Z,0.97
2019-06-15T12:50:36.420Z,0.90
2019-06-15T12:53:31.133Z,0.90
2019-06-15T12:56:32.946Z,1.07
2019-06-15T12:59:28.717Z,1.07
2019-06-15T13:02:30.372Z,1.10
2019-06-15T13:05:24.676Z,1.00
2019-06-15T13:08:25.475Z,1.10
2019-06-15T13:11:32.869Z,1.17
2019-06-15T13:14:38.547Z,1.07
2019-06-15T13:17:41.802Z,1.17
2019-06-15T13:20:43.271Z,0.83
2019-06-15T13:23:37.250Z,0.90
2019-06-15T13:26:38.202Z,1.10
2019-06-15T13:29:32.529Z,0.90
2019-06-15T13:32:34.275Z,0.70
2019-06-15T13:35:28.299Z,1.10
2019-06-15T13:38:29.861Z,0.90
2019-06-15T13:41:27.102Z,1.17
2019-06-15T13:44:28.354Z,0.77
2019-06-15T13:47:21.873Z,0.83
2019-06-15T13:50:24.628Z,1.00
2019-06-15T13:53:20.315Z,1.00
2019-06-15T13:56:23.996Z,1.10
2019-06-15T13:59:18.675Z,0.90
2019-06-15T14:02:19.356Z,0.97
2019-06-15T14:05:18.022Z,0.97
2019-06-15T14:08:21.901Z,1.43
2019-06-15T14:11:16.224Z,1.10
2019-06-15T14:14:17.397Z,1.00
2019-06-15T14:17:14.931Z,0.80
2019-06-15T14:20:16.278Z,0.90
2019-06-15T14:23:12.487Z,0.90
2019-06-15T14:26:14.844Z,1.03
2019-06-15T14:29:10.420Z,0.83
2019-06-15T14:32:11.846Z,1.00
2019-06-15T14:35:06.316Z,0.93
2019-06-15T14:38:08.102Z,0.87
2019-06-15T14:41:04.838Z,1.07
2019-06-15T14:44:05.380Z,0.90
2019-06-15T14:47:02.978Z,0.80
2019-06-15T14:50:12.384Z,0.93
2019-06-15T14:53:09.262Z,0.80
2019-06-15T14:56:12.138Z,1.10
2019-06-15T14:59:06.856Z,0.90
2019-06-15T15:02:13.719Z,1.00
2019-06-15T15:05:03.424Z,0.87
2019-06-15T15:08:06.903Z,1.00
2019-06-15T15:11:00.303Z,1.00
2019-06-15T15:14:06.564Z,0.70
2019-06-15T15:17:07.778Z,1.20
2019-06-15T15:20:07.210Z,1.30
2019-06-15T15:23:01.693Z,1.30
2019-06-15T15:26:06.607Z,1.20
2019-06-15T15:29:07.105Z,1.10
2019-06-15T15:32:01.528Z,0.90
2019-06-15T15:34:56.598Z,0.90
2019-06-15T15:37:57.184Z,1.00
2019-06-15T15:40:51.221Z,0.90
2019-06-15T15:43:54.105Z,0.90
2019-06-15T15:47:02.416Z,0.63
2019-06-15T15:50:06.369Z,0.90
2019-06-15T15:53:05.416Z,0.90
2019-06-15T15:56:06.913Z,1.00
2019-06-15T15:59:00.590Z,0.80
2019-06-15T16:02:01.418Z,0.83
2019-06-15T16:04:57.520Z,0.80
2019-06-15T16:07:58.728Z,0.90
2019-06-15T16:10:59.063Z,1.20
2019-06-15T16:14:02.410Z,1.00
2019-06-15T16:16:56.113Z,0.87
2019-06-15T16:19:58.761Z,0.80
2019-06-15T16:22:52.815Z,0.80
2019-06-15T16:25:54.498Z,1.00
2019-06-15T16:28:48.423Z,1.40
2019-06-15T16:31:49.155Z,0.80
2019-06-15T16:34:49.707Z,0.87
2019-06-15T16:37:55.765Z,0.70
2019-06-15T16:40:47.589Z,1.03
2019-06-15T16:43:53.195Z,0.90
2019-06-15T16:46:48.248Z,1.00
2019-06-15T16:49:53.175Z,0.97
2019-06-15T16:52:52.549Z,1.03
2019-06-15T16:55:56.464Z,0.90
2019-06-15T16:58:50.894Z,0.80
2019-06-15T17:01:52.232Z,1.10
2019-06-15T17:04:48.405Z,0.90
2019-06-15T17:07:49.384Z,0.80
2019-06-15T17:10:46.920Z,0.80
2019-06-15T17:13:48.647Z,1.20
2019-06-15T17:16:43.137Z,0.87
2019-06-15T17:19:46.815Z,0.67
2019-06-15T17:22:56.340Z,0.70
2019-06-15T17:25:57.831Z,0.90
2019-06-15T17:28:56.555Z,0.77
2019-06-15T17:31:59.382Z,0.90
2019-06-15T17:34:56.483Z,1.00
2019-06-15T17:38:00.904Z,1.00
2019-06-15T17:40:57.105Z,1.00
2019-06-15T17:43:58.079Z,0.90
2019-06-15T17:46:53.147Z,0.70
2019-06-15T17:49:56.208Z,0.87
2019-06-15T17:52:50.357Z,1.00
2019-06-15T17:55:50.201Z,0.93
2019-06-15T17:58:46.401Z,0.90
2019-06-15T18:01:47.977Z,0.80
2019-06-15T18:04:45.396Z,0.70
2019-06-15T18:07:46.998Z,0.90
2019-06-15T18:10:42.155Z,0.97
2019-06-15T18:13:43.927Z,0.80
2019-06-15T18:16:38.210Z,0.90
2019-06-15T18:19:39.346Z,0.90
2019-06-15T18:22:32.932Z,1.00
2019-06-15T18:25:37.041Z,0.70
2019-06-15T18:28:29.673Z,0.73
2019-06-15T18:31:31.161Z,0.73
2019-06-15T18:34:27.678Z,0.80
2019-06-15T18:37:32.613Z,0.80
2019-06-15T18:40:26.980Z,0.83
2019-06-15T18:43:29.712Z,0.90
2019-06-15T18:46:27.113Z,0.90
2019-06-15T18:49:27.375Z,1.30
2019-06-15T18:52:21.039Z,1.00
2019-06-15T18:55:22.381Z,0.80
2019-06-15T18:58:17.380Z,0.80
2019-06-15T19:01:19.938Z,0.90
2019-06-15T19:04:24.533Z,0.80
2019-06-15T19:07:16.708Z,0.73
2019-06-15T19:10:18.740Z,0.80
2019-06-15T19:13:20.007Z,1.00
2019-06-15T19:16:20.665Z,0.60
2019-06-15T19:19:22.661Z,0.80
2019-06-15T19:22:17.138Z,0.70
2019-06-15T19:25:19.653Z,0.60
2019-06-15T19:28:16.535Z,0.90
2019-06-15T19:31:18.893Z,0.50
2019-06-15T19:34:20.023Z,0.93
2019-06-15T19:37:15.700Z,0.83
2019-06-15T19:40:16.331Z,0.80
2019-06-15T19:43:13.013Z,1.00
2019-06-15T19:46:21.851Z,0.70
2019-06-15T19:49:25.749Z,0.80
2019-06-15T19:52:19.193Z,0.80
2019-06-15T19:55:23.270Z,0.77
2019-06-15T19:58:20.473Z,1.27
2019-06-15T20:01:22.365Z,1.20
2019-06-15T20:04:17.083Z,0.93
2019-06-15T20:07:17.945Z,1.20
2019-06-15T20:10:12.778Z,0.93
2019-06-15T20:13:14.299Z,0.87
2019-06-15T20:16:08.657Z,0.97
2019-06-15T20:19:09.230Z,0.90
2019-06-15T20:22:06.639Z,0.80
2019-06-15T20:25:08.231Z,0.80
2019-06-15T20:28:06.786Z,0.80
2019-06-15T20:31:07.190Z,1.00
2019-06-15T20:34:01.088Z,0.90
2019-06-15T20:37:04.649Z,0.83
2019-06-15T20:40:00.604Z,0.77
2019-06-15T20:43:07.615Z,0.90
2019-06-15T20:46:06.814Z,0.70
2019-06-15T20:49:08.014Z,1.00
2019-06-15T20:52:23.622Z,0.80
2019-06-15T20:55:26.627Z,0.50
2019-06-15T20:58:20.888Z,0.80
2019-06-15T21:01:25.858Z,1.10
2019-06-15T21:04:37.532Z,0.90
2019-06-15T21:07:46.682Z,0.90
2019-06-15T21:10:47.167Z,0.83
2019-06-15T21:13:41.803Z,1.40
2019-06-15T21:16:36.994Z,0.90
2019-06-15T21:19:38.655Z,1.20
2019-06-15T21:22:47.655Z,0.70
2019-06-15T21:25:48.494Z,0.97
2019-06-15T21:28:42.554Z,1.07
2019-06-15T21:31:46.255Z,0.90
2019-06-15T21:34:42.645Z,0.70
2019-06-15T21:37:46.308Z,0.80
2019-06-15T21:40:39.308Z,0.80
2019-06-15T21:43:40.584Z,1.03
2019-06-15T21:46:36.135Z,0.80
2019-06-15T21:49:37.397Z,0.80
2019-06-15T21:52:31.984Z,0.97
2019-06-15T21:55:36.187Z,1.00
2019-06-15T21:58:41.258Z,1.03
2019-06-15T22:01:41.763Z,0.80
2019-06-15T22:04:36.800Z,1.00
2019-06-15T22:07:42.004Z,0.83
2019-06-15T22:10:36.083Z,0.97
2019-06-15T22:13:37.768Z,1.10
2019-06-15T22:16:32.372Z,0.93
2019-06-15T22:19:33.810Z,1.00
2019-06-15T22:22:28.276Z,0.80
2019-06-15T22:25:28.645Z,1.30
2019-06-15T22:28:27.108Z,1.30
2019-06-15T22:31:28.872Z,1.30
2019-06-15T22:34:36.415Z,0.83
2019-06-15T22:37:37.280Z,1.10
2019-06-15T22:40:31.808Z,1.00
2019-06-15T22:43:36.236Z,1.10
2019-06-15T22:46:31.517Z,1.10
2019-06-15T22:49:33.175Z,1.10
2019-06-15T22:52:26.774Z,1.17
2019-06-15T22:55:28.127Z,1.00
2019-06-15T22:58:22.628Z,1.00
2019-06-15T23:01:26.148Z,1.27
2019-06-15T23:04:22.755Z,1.30
2019-06-15T23:07:24.186Z,1.00
2019-06-15T23:10:19.524Z,1.40
2019-06-15T23:13:20.957Z,1.30
2019-06-15T23:16:17.108Z,1.10
2019-06-15T23:19:19.247Z,1.10
2019-06-15T23:22:13.159Z,1.13
2019-06-15T23:25:17.539Z,1.13
2019-06-15T23:28:11.385Z,1.00
2019-06-15T23:31:13.290Z,1.20
2019-06-15T23:34:07.096Z,1.40
2019-06-15T23:37:10.048Z,1.33
2019-06-15T23:40:23.897Z,1.37
2019-06-15T23:43:26.877Z,1.40
2019-06-15T23:46:27.135Z,1.20
2019-06-15T23:49:27.454Z,1.43
2019-06-15T23:52:26.810Z,1.13
2019-06-15T23:55:27.590Z,1.30
2019-06-15T23:58:26.175Z,1.30
